createdAt,value
2023-07-20T00:01:53.572Z,100444.00
2023-07-20T00:04:23.664Z,100452.00
2023-07-20T00:06:56.265Z,100450.00
2023-07-20T00:09:26.289Z,100454.00
2023-07-20T00:11:57.287Z,100452.00
2023-07-20T00:14:27.366Z,100452.00
2023-07-20T00:17:00.330Z,100448.00
2023-07-20T00:19:33.404Z,100445.00
2023-07-20T00:22:06.496Z,100450.00
2023-07-20T00:24:36.534Z,100461.00
2023-07-20T00:27:06.952Z,100453.00
2023-07-20T00:29:37.012Z,100456.00
2023-07-20T00:32:08.734Z,100460.00
2023-07-20T00:34:38.805Z,100450.00
2023-07-20T00:37:11.406Z,100463.00
2023-07-20T00:39:41.391Z,100459.00
2023-07-20T00:42:11.409Z,100463.00
2023-07-20T00:44:41.426Z,100463.00
2023-07-20T00:47:11.579Z,100462.00
2023-07-20T00:49:42.011Z,100461.00
2023-07-20T00:52:16.676Z,100463.00
2023-07-20T00:54:46.977Z,100455.00
2023-07-20T00:57:19.026Z,100458.00
2023-07-20T00:59:49.535Z,100455.00
2023-07-20T01:02:19.470Z,100466.00
2023-07-20T01:04:49.509Z,100457.00
2023-07-20T01:07:32.028Z,100461.00
2023-07-20T01:10:14.851Z,100444.00
2023-07-20T01:12:47.043Z,100451.00
2023-07-20T01:15:17.783Z,100454.00
2023-07-20T01:17:47.944Z,100445.00
2023-07-20T01:20:19.938Z,100451.00
2023-07-20T01:23:17.317Z,100450.00
2023-07-20T01:26:41.100Z,100448.00
2023-07-20T01:29:31.525Z,100448.00
2023-07-20T01:32:08.384Z,100450.00
2023-07-20T01:34:40.446Z,100450.00
2023-07-20T01:37:11.825Z,100461.00
2023-07-20T01:39:42.918Z,100463.00
2023-07-20T01:42:13.077Z,100456.00
2023-07-20T01:44:43.153Z,100470.00
2023-07-20T01:47:15.738Z,100469.00
2023-07-20T01:49:45.786Z,100463.00
2023-07-20T01:52:16.514Z,100459.00
2023-07-20T01:54:46.612Z,100448.00
2023-07-20T01:57:16.633Z,100459.00
2023-07-20T01:59:46.744Z,100450.00
2023-07-20T02:02:19.456Z,100460.00
2023-07-20T02:04:49.468Z,100463.00
2023-07-20T02:07:19.489Z,100459.00
2023-07-20T02:09:49.534Z,100457.00
2023-07-20T02:12:19.574Z,100468.00
2023-07-20T02:14:51.518Z,100464.00
2023-07-20T02:17:24.150Z,100461.00
2023-07-20T02:19:56.830Z,100458.00
2023-07-20T02:22:27.219Z,100452.00
2023-07-20T02:24:57.225Z,100450.00
2023-07-20T02:27:27.251Z,100460.00
2023-07-20T02:29:57.217Z,100451.00
2023-07-20T02:32:29.989Z,100459.00
2023-07-20T02:35:00.038Z,100445.00
2023-07-20T02:37:30.115Z,100438.00
2023-07-20T02:40:00.182Z,100442.00
2023-07-20T02:42:30.312Z,100451.00
2023-07-20T02:45:00.588Z,100442.00
2023-07-20T02:47:33.689Z,100450.00
2023-07-20T02:50:03.754Z,100453.00
2023-07-20T02:52:33.826Z,100456.00
2023-07-20T02:55:03.878Z,100466.00
2023-07-20T02:57:33.892Z,100465.00
2023-07-20T03:00:05.157Z,100469.00
2023-07-20T03:02:37.793Z,100465.00
2023-07-20T03:05:09.437Z,100461.00
2023-07-20T03:07:39.575Z,100461.00
2023-07-20T03:10:11.241Z,100462.00
2023-07-20T03:12:41.261Z,100466.00
2023-07-20T03:15:13.476Z,100471.00
2023-07-20T03:17:46.129Z,100475.00
2023-07-20T03:20:16.360Z,100479.00
2023-07-20T03:22:46.710Z,100487.00
2023-07-20T03:25:16.966Z,100479.00
2023-07-20T03:27:47.077Z,100475.00
2023-07-20T03:30:17.416Z,100486.00
2023-07-20T03:32:50.123Z,100486.00
2023-07-20T03:35:20.229Z,100487.00
2023-07-20T03:37:50.312Z,100495.00
2023-07-20T03:40:20.521Z,100489.00
2023-07-20T03:42:50.528Z,100490.00
2023-07-20T03:45:20.811Z,100482.00
2023-07-20T03:47:53.519Z,100485.00
2023-07-20T03:50:23.580Z,100481.00
2023-07-20T03:52:53.729Z,100482.00
2023-07-20T03:55:23.742Z,100477.00
2023-07-20T03:57:53.767Z,100490.00
2023-07-20T04:00:24.788Z,100485.00
2023-07-20T04:02:57.418Z,100487.00
2023-07-20T04:05:27.459Z,100494.00
2023-07-20T04:07:57.497Z,100488.00
2023-07-20T04:10:27.500Z,100500.00
2023-07-20T04:12:57.523Z,100492.00
2023-07-20T04:15:27.535Z,100501.00
2023-07-20T04:18:00.499Z,100498.00
2023-07-20T04:20:30.566Z,100499.00
2023-07-20T04:23:00.684Z,100505.00
2023-07-20T04:25:31.859Z,100494.00
2023-07-20T04:28:01.836Z,100492.00
2023-07-20T04:30:31.880Z,100498.00
2023-07-20T04:33:04.486Z,100495.00
2023-07-20T04:35:52.404Z,100503.00
2023-07-20T04:38:23.149Z,100500.00
2023-07-20T04:40:53.862Z,100500.00
2023-07-20T04:43:23.850Z,100500.00
2023-07-20T04:45:54.018Z,100502.00
2023-07-20T04:48:26.676Z,100513.00
2023-07-20T04:50:56.999Z,100509.00
2023-07-20T04:53:27.121Z,100512.00
2023-07-20T04:55:57.158Z,100509.00
2023-07-20T04:58:27.359Z,100510.00
2023-07-20T05:00:57.781Z,100521.00
2023-07-20T05:03:30.804Z,100512.00
2023-07-20T05:06:01.286Z,100522.00
2023-07-20T05:08:31.288Z,100525.00
2023-07-20T05:11:01.289Z,100519.00
2023-07-20T05:13:31.298Z,100522.00
2023-07-20T05:16:01.319Z,100520.00
2023-07-20T05:18:34.092Z,100522.00
2023-07-20T05:21:04.106Z,100518.00
2023-07-20T05:23:34.095Z,100524.00
2023-07-20T05:26:04.332Z,100526.00
2023-07-20T05:28:34.360Z,100518.00
2023-07-20T05:31:07.959Z,100526.00
2023-07-20T05:33:40.526Z,100520.00
2023-07-20T05:36:11.159Z,100522.00
2023-07-20T05:38:41.160Z,100520.00
2023-07-20T05:41:11.897Z,100516.00
2023-07-20T05:43:43.417Z,100520.00
2023-07-20T05:46:13.647Z,100511.00
2023-07-20T05:48:46.381Z,100528.00
2023-07-20T05:51:16.728Z,100521.00
2023-07-20T05:53:46.738Z,100529.00
2023-07-20T05:56:18.073Z,100526.00
2023-07-20T05:58:48.307Z,100527.00
2023-07-20T06:01:19.734Z,100531.00
2023-07-20T06:03:52.437Z,100538.00
2023-07-20T06:06:23.177Z,100532.00
2023-07-20T06:08:53.375Z,100529.00
2023-07-20T06:11:23.415Z,100521.00
2023-07-20T06:13:53.407Z,100528.00
2023-07-20T06:16:23.666Z,100531.00
2023-07-20T06:18:56.571Z,100546.00
2023-07-20T06:21:26.792Z,100545.00
2023-07-20T06:23:56.822Z,100547.00
2023-07-20T06:26:27.117Z,100549.00
2023-07-20T06:28:57.205Z,100548.00
2023-07-20T06:31:27.286Z,100547.00
2023-07-20T06:34:00.033Z,100551.00
2023-07-20T06:36:30.068Z,100549.00
2023-07-20T06:44:06.708Z,100552.00
2023-07-20T06:46:36.711Z,100553.00
2023-07-20T06:51:44.813Z,100549.00
2023-07-20T06:54:14.805Z,100559.00
2023-07-20T06:56:46.174Z,100555.00
2023-07-20T06:59:16.692Z,100562.00
2023-07-20T07:01:46.878Z,100562.00
2023-07-20T07:04:19.581Z,100563.00
2023-07-20T07:06:49.621Z,100567.00
2023-07-20T07:09:19.938Z,100566.00
2023-07-20T07:11:49.977Z,100572.00
2023-07-20T07:14:21.160Z,100575.00
2023-07-20T07:16:52.306Z,100579.00
2023-07-20T07:19:24.976Z,100566.00
2023-07-20T07:22:00.182Z,100572.00
2023-07-20T07:24:35.186Z,100568.00
2023-07-20T07:27:05.349Z,100571.00
2023-07-20T07:29:35.381Z,100569.00
2023-07-20T07:32:05.531Z,100573.00
2023-07-20T07:34:38.315Z,100578.00
2023-07-20T07:37:09.261Z,100580.00
2023-07-20T07:39:39.290Z,100580.00
2023-07-20T07:42:10.105Z,100583.00
2023-07-20T07:44:40.122Z,100587.00
2023-07-20T07:47:11.253Z,100579.00
2023-07-20T07:49:46.086Z,100583.00
2023-07-20T07:52:17.936Z,100581.00
2023-07-20T07:54:47.941Z,100589.00
2023-07-20T07:57:18.007Z,100592.00
2023-07-20T07:59:47.999Z,100581.00
2023-07-20T08:02:18.102Z,100574.00
2023-07-20T08:04:53.557Z,100581.00
2023-07-20T08:07:23.791Z,100574.00
2023-07-20T08:09:53.764Z,100587.00
2023-07-20T08:12:24.024Z,100586.00
2023-07-20T08:14:54.029Z,100576.00
2023-07-20T08:17:24.281Z,100579.00
2023-07-20T08:19:57.017Z,100581.00
2023-07-20T08:22:27.262Z,100586.00
2023-07-20T08:24:57.644Z,100586.00
2023-07-20T08:27:28.633Z,100590.00
2023-07-20T08:30:00.528Z,100593.00
2023-07-20T08:32:31.288Z,100590.00
2023-07-20T08:35:03.988Z,100589.00
2023-07-20T08:37:34.006Z,100599.00
2023-07-20T08:40:06.998Z,100586.00
2023-07-20T08:42:38.006Z,100593.00
2023-07-20T08:45:13.201Z,100600.00
2023-07-20T08:47:45.540Z,100590.00
2023-07-20T08:50:19.102Z,100599.00
2023-07-20T08:52:49.172Z,100599.00
2023-07-20T08:55:19.987Z,100600.00
2023-07-20T08:57:54.061Z,100606.00
2023-07-20T09:00:26.433Z,100599.00
2023-07-20T09:02:58.126Z,100603.00
2023-07-20T09:08:04.131Z,100600.00
2023-07-20T09:10:34.204Z,100596.00
2023-07-20T09:13:04.275Z,100603.00
2023-07-20T09:15:34.627Z,100595.00
2023-07-20T09:18:07.155Z,100601.00
2023-07-20T09:20:40.790Z,100602.00
2023-07-20T09:23:10.830Z,100601.00
2023-07-20T09:25:41.152Z,100601.00
2023-07-20T09:30:42.491Z,100604.00
2023-07-20T09:36:57.576Z,100596.00
2023-07-20T09:49:29.387Z,100598.00
2023-07-20T09:52:05.430Z,100601.00
2023-07-20T09:54:36.732Z,100601.00
2023-07-20T09:57:08.237Z,100590.00
2023-07-20T09:59:38.555Z,100592.00
2023-07-20T10:02:17.918Z,100587.00
2023-07-20T10:04:48.401Z,100596.00
2023-07-20T10:07:24.200Z,100597.00
2023-07-20T10:09:57.149Z,100601.00
2023-07-20T10:12:28.524Z,100601.00
2023-07-20T10:15:15.462Z,100602.00
2023-07-20T10:17:59.371Z,100606.00
2023-07-20T10:20:32.401Z,100600.00
2023-07-20T10:23:08.169Z,100602.00
2023-07-20T10:25:39.573Z,100609.00
2023-07-20T10:28:10.141Z,100607.00
2023-07-20T10:30:40.921Z,100620.00
2023-07-20T10:33:11.335Z,100620.00
2023-07-20T10:35:57.080Z,100614.00
2023-07-20T10:38:57.872Z,100613.00
2023-07-20T10:41:33.109Z,100617.00
2023-07-20T10:44:06.157Z,100614.00
2023-07-20T10:46:48.120Z,100612.00
2023-07-20T10:49:22.618Z,100617.00
2023-07-20T10:52:00.602Z,100616.00
2023-07-20T10:54:52.783Z,100619.00
2023-07-20T10:57:33.786Z,100605.00
2023-07-20T11:00:16.611Z,100609.00
2023-07-20T11:02:50.911Z,100613.00
2023-07-20T11:05:39.448Z,100619.00
2023-07-20T11:08:14.208Z,100616.00
2023-07-20T11:10:46.853Z,100627.00
2023-07-20T11:13:27.995Z,100617.00
2023-07-20T11:16:09.053Z,100622.00
2023-07-20T11:18:42.360Z,100619.00
2023-07-20T11:21:13.771Z,100615.00
2023-07-20T11:23:44.031Z,100622.00
2023-07-20T11:26:17.542Z,100613.00
2023-07-20T11:28:47.553Z,100615.00
2023-07-20T11:31:19.779Z,100623.00
2023-07-20T11:33:50.182Z,100619.00
2023-07-20T11:38:53.203Z,100627.00
2023-07-20T11:41:26.080Z,100621.00
2023-07-20T11:43:56.171Z,100620.00
2023-07-20T11:46:26.412Z,100615.00
2023-07-20T11:49:02.313Z,100610.00
2023-07-20T11:51:33.342Z,100615.00
2023-07-20T11:54:04.794Z,100602.00
2023-07-20T11:56:37.545Z,100604.00
2023-07-20T11:59:07.634Z,100618.00
2023-07-20T12:01:37.726Z,100611.00
2023-07-20T12:04:08.361Z,100616.00
2023-07-20T12:06:38.493Z,100614.00
2023-07-20T12:09:08.504Z,100617.00
2023-07-20T12:11:42.897Z,100619.00
2023-07-20T12:14:17.712Z,100611.00
2023-07-20T12:16:48.230Z,100611.00
2023-07-20T12:19:18.313Z,100617.00
2023-07-20T12:21:48.308Z,100615.00
2023-07-20T12:24:18.387Z,100619.00
2023-07-20T12:26:51.274Z,100620.00
2023-07-20T12:29:21.324Z,100621.00
2023-07-20T12:31:51.378Z,100618.00
2023-07-20T12:34:21.373Z,100625.00
2023-07-20T12:36:51.513Z,100626.00
2023-07-20T12:39:21.643Z,100621.00
2023-07-20T12:41:54.270Z,100613.00
2023-07-20T12:44:24.236Z,100626.00
2023-07-20T12:46:54.354Z,100618.00
2023-07-20T12:49:24.380Z,100622.00
2023-07-20T12:51:54.423Z,100629.00
2023-07-20T12:54:24.405Z,100631.00
2023-07-20T12:59:29.900Z,100629.00
2023-07-20T13:01:59.920Z,100629.00
2023-07-20T13:04:29.975Z,100622.00
2023-07-20T13:07:01.301Z,100623.00
2023-07-20T13:09:31.430Z,100629.00
2023-07-20T13:12:04.256Z,100617.00
2023-07-20T13:14:34.307Z,100615.00
2023-07-20T13:17:04.315Z,100621.00
2023-07-20T13:19:34.357Z,100625.00
2023-07-20T13:22:04.601Z,100622.00
2023-07-20T13:24:34.651Z,100618.00
2023-07-20T13:27:08.300Z,100609.00
2023-07-20T13:29:38.293Z,100612.00
2023-07-20T13:32:10.339Z,100613.00
2023-07-20T13:34:40.758Z,100614.00
2023-07-20T13:37:13.617Z,100606.00
2023-07-20T13:39:45.116Z,100608.00
2023-07-20T13:42:19.745Z,100604.00
2023-07-20T13:44:50.347Z,100603.00
2023-07-20T13:47:22.155Z,100599.00
2023-07-20T13:50:04.169Z,100592.00
2023-07-20T13:55:08.976Z,100593.00
2023-07-20T13:57:43.620Z,100597.00
2023-07-20T14:00:17.845Z,100595.00
2023-07-20T14:07:54.654Z,100583.00
2023-07-20T14:10:24.832Z,100579.00
2023-07-20T14:12:57.470Z,100576.00
2023-07-20T14:15:27.486Z,100576.00
2023-07-20T14:17:57.545Z,100580.00
2023-07-20T14:20:27.594Z,100574.00
2023-07-20T14:22:59.169Z,100575.00
2023-07-20T14:25:29.832Z,100581.00
2023-07-20T14:28:02.457Z,100580.00
2023-07-20T14:30:32.453Z,100567.00
2023-07-20T14:33:02.549Z,100559.00
2023-07-20T14:35:32.691Z,100567.00
2023-07-20T14:38:02.786Z,100575.00
2023-07-20T14:40:35.543Z,100575.00
2023-07-20T14:43:08.115Z,100573.00
2023-07-20T14:45:38.899Z,100572.00
2023-07-20T14:48:09.383Z,100569.00
2023-07-20T14:50:39.587Z,100570.00
2023-07-20T14:53:09.632Z,100572.00
2023-07-20T14:55:39.885Z,100566.00
2023-07-20T14:58:12.519Z,100569.00
2023-07-20T15:00:42.560Z,100562.00
2023-07-20T15:03:12.879Z,100561.00
2023-07-20T15:05:43.906Z,100564.00
2023-07-20T15:08:13.870Z,100558.00
2023-07-20T15:10:44.164Z,100561.00
2023-07-20T15:13:16.789Z,100562.00
2023-07-20T15:15:47.058Z,100550.00
2023-07-20T15:18:17.105Z,100550.00
2023-07-20T15:20:48.958Z,100547.00
2023-07-20T15:23:19.018Z,100555.00
2023-07-20T15:25:49.082Z,100551.00
2023-07-20T15:28:21.671Z,100564.00
2023-07-20T15:30:52.727Z,100560.00
2023-07-20T15:33:23.573Z,100565.00
2023-07-20T15:35:55.531Z,100564.00
2023-07-20T15:38:25.946Z,100571.00
2023-07-20T15:40:57.943Z,100563.00
2023-07-20T15:43:30.595Z,100562.00
2023-07-20T15:46:46.313Z,100566.00
2023-07-20T15:49:16.383Z,100562.00
2023-07-20T15:51:47.837Z,100557.00
2023-07-20T15:54:19.138Z,100558.00
2023-07-20T15:56:49.226Z,100565.00
2023-07-20T15:59:21.884Z,100563.00
2023-07-20T16:01:51.877Z,100578.00
2023-07-20T16:04:22.431Z,100558.00
2023-07-20T16:06:52.643Z,100561.00
2023-07-20T16:09:23.718Z,100567.00
2023-07-20T16:11:53.803Z,100569.00
2023-07-20T16:14:26.376Z,100569.00
2023-07-20T16:16:56.496Z,100561.00
2023-07-20T16:19:27.136Z,100573.00
2023-07-20T16:21:57.317Z,100576.00
2023-07-20T16:24:27.453Z,100571.00
2023-07-20T16:26:57.436Z,100577.00
2023-07-20T16:29:30.238Z,100573.00
2023-07-20T16:34:48.606Z,100582.00
2023-07-20T16:39:55.007Z,100586.00
2023-07-20T16:45:00.682Z,100591.00
2023-07-20T16:47:31.282Z,100581.00
2023-07-20T16:50:01.296Z,100586.00
2023-07-20T16:52:32.226Z,100579.00
2023-07-20T16:55:02.229Z,100577.00
2023-07-20T16:57:32.237Z,100580.00
2023-07-20T17:00:08.339Z,100576.00
2023-07-20T17:02:38.459Z,100588.00
2023-07-20T17:05:11.630Z,100586.00
2023-07-20T17:07:41.939Z,100589.00
2023-07-20T17:10:13.319Z,100591.00
2023-07-20T17:12:44.065Z,100601.00
2023-07-20T17:15:17.119Z,100590.00
2023-07-20T17:17:47.141Z,100586.00
2023-07-20T17:22:50.376Z,100596.00
2023-07-20T17:30:29.849Z,100602.00
2023-07-20T17:33:00.024Z,100600.00
2023-07-20T17:35:30.275Z,100600.00
2023-07-20T17:43:07.060Z,100598.00
2023-07-20T17:45:40.179Z,100606.00
2023-07-20T17:48:10.700Z,100601.00
2023-07-20T17:50:41.016Z,100610.00
2023-07-20T17:53:11.209Z,100607.00
2023-07-20T17:55:41.543Z,100608.00
2023-07-20T17:58:12.056Z,100611.00
2023-07-20T18:00:44.874Z,100613.00
2023-07-20T18:03:15.925Z,100609.00
2023-07-20T18:05:46.165Z,100615.00
2023-07-20T18:08:17.030Z,100606.00
2023-07-20T18:10:47.264Z,100612.00
2023-07-20T18:13:17.412Z,100610.00
2023-07-20T18:15:57.938Z,100611.00
2023-07-20T18:18:28.267Z,100606.00
2023-07-20T18:20:58.579Z,100612.00
2023-07-20T18:23:29.642Z,100599.00
2023-07-20T18:25:59.827Z,100608.00
2023-07-20T18:28:29.999Z,100604.00
2023-07-20T18:31:07.889Z,100613.00
2023-07-20T18:33:38.141Z,100624.00
2023-07-20T18:36:08.553Z,100612.00
2023-07-20T18:38:38.582Z,100621.00
2023-07-20T18:41:08.580Z,100616.00
2023-07-20T18:43:39.829Z,100619.00
2023-07-20T18:46:12.431Z,100623.00
2023-07-20T18:48:42.471Z,100625.00
2023-07-20T18:51:12.612Z,100628.00
2023-07-20T18:53:42.630Z,100630.00
2023-07-20T18:56:13.190Z,100633.00
2023-07-20T18:58:43.414Z,100633.00
2023-07-20T19:01:17.397Z,100640.00
2023-07-20T19:03:47.934Z,100643.00
2023-07-20T19:06:18.184Z,100641.00
2023-07-20T19:08:48.260Z,100649.00
2023-07-20T19:13:51.214Z,100648.00
2023-07-20T19:16:25.675Z,100653.00
2023-07-20T19:18:57.351Z,100655.00
2023-07-20T19:21:27.616Z,100654.00
2023-07-20T19:23:57.638Z,100652.00
2023-07-20T19:26:27.761Z,100650.00
2023-07-20T19:28:58.065Z,100655.00
2023-07-20T19:31:30.697Z,100658.00
2023-07-20T19:34:00.756Z,100659.00
2023-07-20T19:36:31.233Z,100665.00
2023-07-20T19:39:01.814Z,100658.00
2023-07-20T19:41:31.987Z,100670.00
2023-07-20T19:44:02.015Z,100667.00
2023-07-20T19:46:34.989Z,100673.00
2023-07-20T19:49:05.076Z,100672.00
2023-07-20T19:51:37.206Z,100669.00
2023-07-20T19:56:41.837Z,100670.00
2023-07-20T19:59:13.677Z,100678.00
2023-07-20T20:01:47.320Z,100675.00
2023-07-20T20:06:54.032Z,100676.00
2023-07-20T20:09:24.528Z,100676.00
2023-07-20T20:11:54.768Z,100672.00
2023-07-20T20:14:24.825Z,100679.00
2023-07-20T20:16:57.480Z,100680.00
2023-07-20T20:19:27.515Z,100686.00
2023-07-20T20:22:02.673Z,100685.00
2023-07-20T20:24:32.763Z,100686.00
2023-07-20T20:27:02.795Z,100687.00
2023-07-20T20:29:32.839Z,100686.00
2023-07-20T20:32:05.628Z,100684.00
2023-07-20T20:34:36.274Z,100691.00
2023-07-20T20:37:06.451Z,100683.00
2023-07-20T20:39:36.721Z,100676.00
2023-07-20T20:42:07.540Z,100687.00
2023-07-20T20:44:37.585Z,100692.00
2023-07-20T20:47:10.819Z,100688.00
2023-07-20T20:49:46.098Z,100689.00
2023-07-20T20:52:18.369Z,100690.00
2023-07-20T20:54:49.105Z,100691.00
2023-07-20T20:57:20.063Z,100693.00
2023-07-20T20:59:51.376Z,100694.00
2023-07-20T21:02:24.014Z,100688.00
2023-07-20T21:04:54.075Z,100690.00
2023-07-20T21:07:25.073Z,100688.00
2023-07-20T21:09:55.560Z,100692.00
2023-07-20T21:12:25.738Z,100695.00
2023-07-20T21:14:55.952Z,100683.00
2023-07-20T21:17:29.150Z,100682.00
2023-07-20T21:19:59.170Z,100681.00
2023-07-20T21:22:29.366Z,100684.00
2023-07-20T21:24:59.495Z,100685.00
2023-07-20T21:27:29.473Z,100679.00
2023-07-20T21:30:00.229Z,100677.00
2023-07-20T21:32:32.865Z,100680.00
2023-07-20T21:35:02.919Z,100681.00
2023-07-20T21:37:32.916Z,100683.00
2023-07-20T21:40:04.561Z,100681.00
2023-07-20T21:42:34.825Z,100682.00
2023-07-20T21:45:04.833Z,100677.00
2023-07-20T21:47:37.663Z,100688.00
2023-07-20T21:50:09.008Z,100684.00
2023-07-20T21:52:39.076Z,100687.00
2023-07-20T21:55:10.937Z,100691.00
2023-07-20T21:57:40.933Z,100697.00
2023-07-20T22:00:13.633Z,100699.00
2023-07-20T22:02:46.311Z,100692.00
2023-07-20T22:05:19.023Z,100701.00
2023-07-20T22:07:49.152Z,100701.00
2023-07-20T22:10:19.357Z,100704.00
2023-07-20T22:12:49.623Z,100710.00
2023-07-20T22:15:19.623Z,100715.00
2023-07-20T22:17:52.289Z,100707.00
2023-07-20T22:20:22.682Z,100701.00
2023-07-20T22:22:52.701Z,100702.00
2023-07-20T22:25:22.928Z,100706.00
2023-07-20T22:27:52.935Z,100695.00
2023-07-20T22:30:23.133Z,100698.00
2023-07-20T22:32:56.785Z,100699.00
2023-07-20T22:35:27.328Z,100691.00
2023-07-20T22:37:57.317Z,100701.00
2023-07-20T22:40:27.394Z,100704.00
2023-07-20T22:42:54.848Z,100707.00
2023-07-20T22:45:25.132Z,100703.00
2023-07-20T22:47:57.784Z,100709.00
2023-07-20T22:50:28.015Z,100698.00
2023-07-20T22:52:57.984Z,100695.00
2023-07-20T22:55:28.042Z,100694.00
2023-07-20T22:57:59.154Z,100694.00
2023-07-20T23:00:32.534Z,100692.00
2023-07-20T23:03:05.473Z,100695.00
2023-07-20T23:05:35.610Z,100688.00
2023-07-20T23:08:05.581Z,100693.00
2023-07-20T23:10:36.101Z,100693.00
2023-07-20T23:13:06.280Z,100696.00
2023-07-20T23:15:36.777Z,100686.00
2023-07-20T23:18:09.642Z,100693.00
2023-07-20T23:20:39.735Z,100689.00
2023-07-20T23:23:09.831Z,100683.00
2023-07-20T23:25:39.874Z,100690.00
2023-07-20T23:28:09.882Z,100689.00
2023-07-20T23:30:39.866Z,100684.00
2023-07-20T23:33:12.440Z,100682.00
2023-07-20T23:35:42.894Z,100678.00
2023-07-20T23:38:12.895Z,100686.00
2023-07-20T23:40:43.061Z,100685.00
2023-07-20T23:43:13.390Z,100685.00
2023-07-20T23:45:43.454Z,100682.00
2023-07-20T23:48:16.228Z,100682.00
2023-07-20T23:50:46.276Z,100684.00
2023-07-20T23:53:16.334Z,100686.00
2023-07-20T23:55:46.322Z,100684.00
2023-07-20T23:58:16.318Z,100682.00
